createdAt,value
2022-11-16T00:01:13.202Z,10.06
2022-11-16T00:03:40.788Z,10.13
2022-11-16T00:06:09.204Z,10.10
2022-11-16T00:08:38.955Z,10.16
2022-11-16T00:11:15.429Z,10.12
2022-11-16T00:13:43.804Z,10.17
2022-11-16T00:16:17.876Z,10.22
2022-11-16T00:18:45.160Z,10.25
2022-11-16T00:21:11.940Z,10.29
2022-11-16T00:23:39.944Z,10.29
2022-11-16T00:26:08.610Z,10.25
2022-11-16T00:28:36.557Z,10.31
2022-11-16T00:31:07.123Z,10.34
2022-11-16T00:33:34.937Z,10.34
2022-11-16T00:36:03.941Z,10.31
2022-11-16T00:38:31.878Z,10.24
2022-11-16T00:40:59.253Z,10.26
2022-11-16T00:43:26.769Z,10.25
2022-11-16T00:45:53.998Z,10.30
2022-11-16T00:48:21.688Z,10.20
2022-11-16T00:50:48.775Z,10.26
2022-11-16T00:53:18.356Z,10.25
2022-11-16T00:55:46.628Z,10.20
2022-11-16T00:58:16.040Z,10.11
2022-11-16T01:00:45.165Z,10.14
2022-11-16T01:03:12.158Z,10.15
2022-11-16T01:05:39.297Z,10.11
2022-11-16T01:08:07.813Z,10.05
2022-11-16T01:10:39.789Z,10.02
2022-11-16T01:13:07.236Z,10.06
2022-11-16T01:15:35.193Z,10.00
2022-11-16T01:18:02.072Z,9.98
2022-11-16T01:20:29.946Z,10.02
2022-11-16T01:22:56.974Z,10.03
2022-11-16T01:25:23.972Z,10.05
2022-11-16T01:27:51.070Z,10.08
2022-11-16T01:30:25.131Z,10.08
2022-11-16T01:33:05.407Z,10.06
2022-11-16T01:35:32.339Z,10.05
2022-11-16T01:37:59.635Z,9.98
2022-11-16T01:40:28.173Z,9.93
2022-11-16T01:42:54.988Z,9.98
2022-11-16T01:45:35.421Z,10.05
2022-11-16T01:48:05.491Z,10.04
2022-11-16T01:50:34.946Z,9.89
2022-11-16T01:53:06.021Z,9.86
2022-11-16T01:55:43.425Z,9.97
2022-11-16T01:58:21.312Z,9.69
2022-11-16T02:00:53.218Z,9.68
2022-11-16T02:03:29.861Z,9.67
2022-11-16T02:06:27.480Z,9.66
2022-11-16T02:09:51.933Z,9.76
2022-11-16T02:12:38.213Z,9.79
2022-11-16T02:15:31.881Z,9.80
2022-11-16T02:18:57.246Z,9.64
2022-11-16T02:21:37.180Z,10.00
2022-11-16T02:24:19.215Z,9.48
2022-11-16T02:27:07.704Z,9.32
2022-11-16T02:29:37.416Z,9.31
2022-11-16T02:32:25.482Z,9.18
2022-11-16T02:34:58.309Z,9.14
2022-11-16T02:37:28.725Z,8.95
2022-11-16T02:39:59.687Z,8.89
2022-11-16T02:42:34.559Z,8.86
2022-11-16T02:45:06.939Z,8.85
2022-11-16T02:47:35.799Z,8.85
2022-11-16T02:50:14.309Z,8.79
2022-11-16T02:52:41.337Z,8.68
2022-11-16T02:55:10.538Z,8.65
2022-11-16T02:57:46.488Z,8.71
2022-11-16T03:00:26.661Z,8.79
2022-11-16T03:03:19.015Z,8.81
2022-11-16T03:05:58.358Z,8.78
2022-11-16T03:08:42.207Z,8.69
2022-11-16T03:11:30.402Z,8.61
2022-11-16T03:14:05.819Z,8.66
2022-11-16T03:16:40.814Z,8.60
2022-11-16T03:19:13.834Z,8.61
2022-11-16T03:22:05.536Z,8.65
2022-11-16T03:24:33.534Z,8.63
2022-11-16T03:27:15.537Z,8.64
2022-11-16T03:29:42.441Z,8.72
2022-11-16T03:32:33.892Z,8.74
2022-11-16T03:35:19.947Z,8.81
2022-11-16T03:37:50.693Z,8.85
2022-11-16T03:40:19.435Z,8.80
2022-11-16T03:42:49.778Z,8.77
2022-11-16T03:45:19.170Z,8.81
2022-11-16T03:47:46.334Z,8.81
2022-11-16T03:50:14.080Z,8.77
2022-11-16T03:52:42.120Z,8.72
2022-11-16T03:55:09.670Z,8.74
2022-11-16T03:57:41.389Z,8.77
2022-11-16T04:00:09.456Z,8.75
2022-11-16T04:02:42.972Z,8.76
2022-11-16T04:05:34.302Z,8.63
2022-11-16T04:08:19.706Z,8.68
2022-11-16T04:11:05.337Z,8.57
2022-11-16T04:13:53.955Z,8.58
2022-11-16T04:16:39.574Z,8.67
2022-11-16T04:19:29.859Z,8.60
2022-11-16T04:22:22.834Z,8.63
2022-11-16T04:24:55.002Z,8.60
2022-11-16T04:27:47.060Z,8.49
2022-11-16T04:30:14.571Z,8.45
2022-11-16T04:33:01.003Z,8.44
2022-11-16T04:35:48.131Z,8.52
2022-11-16T04:38:15.170Z,8.44
2022-11-16T04:40:42.107Z,8.37
2022-11-16T04:43:11.485Z,8.33
2022-11-16T04:45:59.431Z,8.37
2022-11-16T04:48:33.816Z,8.17
2022-11-16T04:51:02.520Z,8.15
2022-11-16T04:53:29.899Z,8.11
2022-11-16T04:56:07.266Z,8.12
2022-11-16T04:58:34.941Z,8.12
2022-11-16T05:01:02.513Z,8.09
2022-11-16T05:03:29.422Z,8.16
2022-11-16T05:05:56.291Z,8.18
2022-11-16T05:08:23.316Z,8.23
2022-11-16T05:10:52.359Z,8.22
2022-11-16T05:13:19.951Z,8.22
2022-11-16T05:15:49.321Z,8.30
2022-11-16T05:18:16.604Z,8.32
2022-11-16T05:21:01.890Z,8.21
2022-11-16T05:23:56.200Z,8.23
2022-11-16T05:26:25.891Z,8.27
2022-11-16T05:28:54.271Z,8.34
2022-11-16T05:31:21.176Z,8.39
2022-11-16T05:33:48.588Z,8.32
2022-11-16T05:36:16.270Z,8.40
2022-11-16T05:38:43.238Z,8.36
2022-11-16T05:41:10.358Z,8.44
2022-11-16T05:43:37.879Z,8.46
2022-11-16T05:46:13.702Z,8.40
2022-11-16T05:48:40.703Z,8.42
2022-11-16T05:51:08.674Z,8.48
2022-11-16T05:53:35.630Z,8.41
2022-11-16T05:56:03.037Z,8.40
2022-11-16T05:58:33.282Z,8.44
2022-11-16T06:01:00.895Z,8.42
2022-11-16T06:03:31.748Z,8.47
2022-11-16T06:05:59.760Z,8.53
2022-11-16T06:08:28.333Z,8.67
2022-11-16T06:11:00.897Z,8.62
2022-11-16T06:13:27.845Z,8.73
2022-11-16T06:15:57.598Z,8.73
2022-11-16T06:18:24.783Z,8.92
2022-11-16T06:20:51.780Z,8.89
2022-11-16T06:23:21.453Z,8.97
2022-11-16T06:25:53.957Z,9.12
2022-11-16T06:28:21.846Z,9.14
2022-11-16T06:30:49.337Z,9.09
2022-11-16T06:33:17.120Z,9.19
2022-11-16T06:35:44.464Z,9.06
2022-11-16T06:38:18.720Z,9.07
2022-11-16T06:40:52.540Z,9.07
2022-11-16T06:43:21.421Z,9.27
2022-11-16T06:45:53.917Z,9.47
2022-11-16T06:48:20.978Z,9.47
2022-11-16T06:50:49.913Z,9.56
2022-11-16T06:53:19.492Z,9.70
2022-11-16T06:55:48.287Z,9.63
2022-11-16T06:58:15.802Z,9.56
2022-11-16T07:00:44.088Z,9.35
2022-11-16T07:03:11.776Z,9.39
2022-11-16T07:05:41.290Z,9.68
2022-11-16T07:08:12.775Z,9.86
2022-11-16T07:10:40.125Z,9.66
2022-11-16T07:13:07.832Z,9.43
2022-11-16T07:15:37.835Z,9.59
2022-11-16T07:18:07.555Z,9.32
2022-11-16T07:20:38.776Z,9.24
2022-11-16T07:23:09.077Z,9.44
2022-11-16T07:25:40.352Z,9.38
2022-11-16T07:28:07.931Z,9.45
2022-11-16T07:30:35.729Z,9.62
2022-11-16T07:33:17.271Z,9.66
2022-11-16T07:36:13.139Z,9.63
2022-11-16T07:38:40.737Z,9.76
2022-11-16T07:41:11.827Z,9.69
2022-11-16T07:43:52.619Z,9.46
2022-11-16T07:49:18.958Z,9.52
2022-11-16T07:51:55.162Z,9.62
2022-11-16T07:54:40.953Z,9.66
2022-11-16T07:57:08.499Z,9.50
2022-11-16T07:59:35.522Z,9.56
2022-11-16T08:02:04.298Z,9.50
2022-11-16T08:04:32.079Z,9.67
2022-11-16T08:06:59.642Z,9.56
2022-11-16T08:09:31.118Z,9.57
2022-11-16T08:11:58.404Z,9.66
2022-11-16T08:14:25.236Z,9.69
2022-11-16T08:16:55.335Z,9.67
2022-11-16T08:19:29.475Z,9.71
2022-11-16T08:21:58.174Z,9.74
2022-11-16T08:24:28.557Z,9.65
2022-11-16T08:26:57.336Z,9.66
2022-11-16T08:29:24.277Z,9.71
2022-11-16T08:31:51.918Z,9.53
2022-11-16T08:34:21.482Z,9.50
2022-11-16T08:36:56.186Z,9.61
2022-11-16T08:39:29.454Z,9.63
2022-11-16T08:41:56.636Z,9.63
2022-11-16T08:44:23.693Z,9.53
2022-11-16T08:46:53.378Z,9.55
2022-11-16T08:49:35.286Z,9.63
2022-11-16T08:52:02.327Z,9.76
2022-11-16T08:54:30.696Z,9.92
2022-11-16T08:56:57.871Z,9.94
2022-11-16T08:59:24.903Z,9.91
2022-11-16T09:01:55.517Z,9.91
2022-11-16T09:04:23.523Z,9.83
2022-11-16T09:06:53.063Z,9.72
2022-11-16T09:09:20.002Z,9.69
2022-11-16T09:11:46.918Z,9.76
2022-11-16T09:14:14.151Z,9.79
2022-11-16T09:16:41.067Z,9.71
2022-11-16T09:19:22.119Z,9.84
2022-11-16T09:21:57.247Z,9.72
2022-11-16T09:24:24.123Z,9.74
2022-11-16T09:26:51.101Z,9.74
2022-11-16T09:29:17.947Z,9.78
2022-11-16T09:31:45.413Z,9.78
2022-11-16T09:34:12.326Z,9.78
2022-11-16T09:36:39.225Z,9.81
2022-11-16T09:42:02.753Z,9.95
2022-11-16T09:45:17.132Z,10.17
2022-11-16T09:47:51.322Z,10.21
2022-11-16T09:50:43.601Z,10.28
2022-11-16T09:53:46.523Z,10.11
2022-11-16T09:56:27.220Z,10.24
2022-11-16T09:59:04.300Z,10.30
2022-11-16T10:01:42.317Z,10.45
2022-11-16T10:04:12.901Z,10.40
2022-11-16T10:07:17.974Z,10.43
2022-11-16T10:09:46.797Z,10.42
2022-11-16T10:12:30.691Z,10.40
2022-11-16T10:15:07.418Z,10.23
2022-11-16T10:17:52.930Z,10.28
2022-11-16T10:20:30.413Z,10.27
2022-11-16T10:23:28.719Z,10.29
2022-11-16T10:26:22.359Z,10.36
2022-11-16T10:29:31.700Z,10.33
2022-11-16T10:32:17.413Z,10.41
2022-11-16T10:34:50.436Z,10.37
2022-11-16T10:37:18.018Z,10.62
2022-11-16T10:39:48.811Z,10.45
2022-11-16T10:42:35.706Z,10.47
2022-11-16T10:45:08.305Z,10.48
2022-11-16T10:47:45.210Z,10.32
2022-11-16T10:50:39.520Z,10.40
2022-11-16T10:53:06.697Z,10.49
2022-11-16T10:55:33.484Z,10.37
2022-11-16T10:58:05.829Z,10.45
2022-11-16T11:00:38.717Z,10.52
2022-11-16T11:03:06.241Z,10.51
2022-11-16T11:05:35.279Z,10.45
2022-11-16T11:08:10.275Z,10.42
2022-11-16T11:10:40.003Z,10.50
2022-11-16T11:13:27.370Z,10.40
2022-11-16T11:16:15.203Z,10.29
2022-11-16T11:18:42.630Z,10.31
2022-11-16T11:21:21.038Z,10.46
2022-11-16T11:24:10.569Z,10.39
2022-11-16T11:26:49.507Z,10.21
2022-11-16T11:29:20.166Z,10.27
2022-11-16T11:31:54.419Z,10.27
2022-11-16T11:34:30.816Z,10.19
2022-11-16T11:37:03.054Z,10.26
2022-11-16T11:39:37.390Z,10.31
2022-11-16T11:42:13.442Z,10.39
2022-11-16T11:45:01.973Z,10.43
2022-11-16T11:50:48.507Z,10.31
2022-11-16T11:53:34.385Z,10.28
2022-11-16T11:56:05.113Z,10.27
2022-11-16T11:58:38.724Z,10.28
2022-11-16T12:01:38.439Z,10.39
2022-11-16T12:04:08.154Z,10.53
2022-11-16T12:06:59.825Z,10.47
2022-11-16T12:09:51.156Z,10.19
2022-11-16T12:12:39.694Z,10.57
2022-11-16T12:15:21.779Z,10.59
2022-11-16T12:17:55.756Z,10.60
2022-11-16T12:20:29.823Z,10.66
2022-11-16T12:23:17.370Z,10.25
2022-11-16T12:26:14.205Z,10.36
2022-11-16T12:29:01.485Z,10.42
2022-11-16T12:31:37.028Z,10.65
2022-11-16T12:34:28.329Z,10.82
2022-11-16T12:37:11.071Z,10.87
2022-11-16T12:40:04.971Z,10.93
2022-11-16T12:42:59.687Z,10.82
2022-11-16T12:45:45.605Z,10.81
2022-11-16T12:48:55.774Z,10.87
2022-11-16T12:51:41.384Z,10.95
2022-11-16T12:55:03.944Z,10.94
2022-11-16T12:57:34.245Z,10.94
2022-11-16T13:00:13.062Z,10.91
2022-11-16T13:02:52.065Z,10.80
2022-11-16T13:05:28.133Z,10.88
2022-11-16T13:08:02.374Z,10.76
2022-11-16T13:10:34.496Z,10.72
2022-11-16T13:15:53.344Z,10.76
2022-11-16T13:18:22.253Z,10.76
2022-11-16T13:20:53.285Z,10.80
2022-11-16T13:23:33.637Z,10.80
2022-11-16T13:26:10.608Z,10.65
2022-11-16T13:28:40.575Z,10.60
2022-11-16T13:31:21.981Z,10.68
2022-11-16T13:34:03.448Z,10.79
2022-11-16T13:36:37.050Z,10.71
2022-11-16T13:39:06.362Z,10.72
2022-11-16T13:41:38.813Z,10.77
2022-11-16T13:44:28.071Z,10.94
2022-11-16T13:47:04.500Z,11.01
2022-11-16T13:49:41.814Z,11.07
2022-11-16T13:52:23.283Z,10.95
2022-11-16T13:54:54.976Z,10.88
2022-11-16T13:57:27.101Z,10.90
2022-11-16T14:00:03.031Z,10.93
2022-11-16T14:02:37.261Z,10.88
2022-11-16T14:05:13.205Z,10.86
2022-11-16T14:07:47.332Z,10.87
2022-11-16T14:10:36.135Z,10.93
2022-11-16T14:13:04.623Z,11.08
2022-11-16T14:15:34.113Z,11.06
2022-11-16T14:18:04.063Z,10.91
2022-11-16T14:21:25.743Z,10.91
2022-11-16T14:24:31.463Z,10.98
2022-11-16T14:27:30.475Z,10.93
2022-11-16T14:30:16.214Z,10.88
2022-11-16T14:32:55.280Z,10.81
2022-11-16T14:35:39.512Z,10.77
2022-11-16T14:38:35.660Z,11.21
2022-11-16T14:41:05.694Z,10.79
2022-11-16T14:43:35.616Z,10.60
2022-11-16T14:46:23.088Z,10.64
2022-11-16T14:48:50.375Z,10.65
2022-11-16T14:51:24.825Z,10.59
2022-11-16T14:54:00.064Z,10.66
2022-11-16T14:56:27.258Z,10.75
2022-11-16T14:58:59.509Z,10.70
2022-11-16T15:01:29.791Z,10.67
2022-11-16T15:04:04.534Z,10.60
2022-11-16T15:06:42.390Z,10.60
2022-11-16T15:09:19.922Z,10.70
2022-11-16T15:12:08.596Z,10.67
2022-11-16T15:14:41.849Z,10.78
2022-11-16T15:17:10.087Z,10.74
2022-11-16T15:19:36.940Z,10.72
2022-11-16T15:22:04.897Z,10.72
2022-11-16T15:24:34.396Z,10.63
2022-11-16T15:27:30.144Z,10.57
2022-11-16T15:29:57.163Z,10.65
2022-11-16T15:32:24.027Z,10.67
2022-11-16T15:34:54.494Z,10.66
2022-11-16T15:37:31.177Z,10.67
2022-11-16T15:40:00.174Z,10.65
2022-11-16T15:42:31.513Z,10.59
2022-11-16T15:45:01.650Z,10.62
2022-11-16T15:47:28.496Z,10.73
2022-11-16T15:49:55.556Z,10.73
2022-11-16T15:52:41.126Z,10.67
2022-11-16T15:55:21.322Z,10.66
2022-11-16T15:58:25.828Z,10.65
2022-11-16T16:00:54.727Z,10.53
2022-11-16T16:03:27.065Z,10.53
2022-11-16T16:05:55.035Z,10.51
2022-11-16T16:08:27.895Z,10.44
2022-11-16T16:11:07.050Z,10.30
2022-11-16T16:14:01.524Z,10.27
2022-11-16T16:16:37.960Z,10.15
2022-11-16T16:19:24.412Z,10.15
2022-11-16T16:21:51.890Z,10.08
2022-11-16T16:24:41.226Z,9.96
2022-11-16T16:27:19.425Z,9.91
2022-11-16T16:29:48.293Z,9.85
2022-11-16T16:32:26.382Z,9.77
2022-11-16T16:34:55.218Z,9.80
2022-11-16T16:37:22.837Z,9.70
2022-11-16T16:39:49.668Z,9.63
2022-11-16T16:42:18.058Z,9.66
2022-11-16T16:44:46.185Z,9.64
2022-11-16T16:47:14.053Z,9.58
2022-11-16T16:49:41.520Z,9.60
2022-11-16T16:52:10.814Z,9.65
2022-11-16T16:54:38.047Z,9.69
2022-11-16T16:57:04.905Z,9.66
2022-11-16T16:59:31.900Z,9.62
2022-11-16T17:01:59.505Z,9.63
2022-11-16T17:04:26.496Z,9.68
2022-11-16T17:06:54.575Z,9.62
2022-11-16T17:09:21.633Z,9.61
2022-11-16T17:11:48.660Z,9.59
2022-11-16T17:14:15.622Z,9.61
2022-11-16T17:16:42.508Z,9.64
2022-11-16T17:19:09.382Z,9.55
2022-11-16T17:21:36.182Z,9.58
2022-11-16T17:24:03.179Z,9.59
2022-11-16T17:26:30.178Z,9.50
2022-11-16T17:28:58.222Z,9.45
2022-11-16T17:31:26.449Z,9.43
2022-11-16T17:33:53.617Z,9.41
2022-11-16T17:36:20.874Z,9.44
2022-11-16T17:38:47.750Z,9.41
2022-11-16T17:41:15.808Z,9.49
2022-11-16T17:43:44.105Z,9.47
2022-11-16T17:46:13.622Z,9.47
2022-11-16T17:48:43.435Z,9.47
2022-11-16T17:51:15.973Z,9.48
2022-11-16T17:53:44.445Z,9.56
2022-11-16T17:56:17.066Z,9.56
2022-11-16T17:58:45.451Z,9.54
2022-11-16T18:01:13.922Z,9.51
2022-11-16T18:03:40.888Z,9.54
2022-11-16T18:06:16.130Z,9.52
2022-11-16T18:08:46.597Z,9.54
2022-11-16T18:11:17.953Z,9.60
2022-11-16T18:13:46.069Z,9.49
2022-11-16T18:16:17.937Z,9.47
2022-11-16T18:18:47.216Z,9.68
2022-11-16T18:21:20.321Z,9.51
2022-11-16T18:23:48.324Z,9.48
2022-11-16T18:26:21.366Z,9.53
2022-11-16T18:28:49.582Z,9.50
2022-11-16T18:31:20.164Z,9.48
2022-11-16T18:33:49.301Z,9.44
2022-11-16T18:36:17.237Z,9.43
2022-11-16T18:38:44.586Z,9.54
2022-11-16T18:41:11.450Z,9.51
2022-11-16T18:43:47.573Z,9.38
2022-11-16T18:46:14.758Z,9.50
2022-11-16T18:48:43.181Z,9.45
2022-11-16T18:51:11.532Z,9.47
2022-11-16T18:53:38.697Z,9.43
2022-11-16T18:56:06.414Z,9.43
2022-11-16T18:58:49.828Z,9.43
2022-11-16T19:01:19.048Z,9.48
2022-11-16T19:03:46.196Z,9.47
2022-11-16T19:06:14.975Z,9.54
2022-11-16T19:08:42.729Z,9.41
2022-11-16T19:11:14.957Z,9.25
2022-11-16T19:13:43.461Z,9.23
2022-11-16T19:16:12.757Z,9.36
2022-11-16T19:18:39.962Z,9.57
2022-11-16T19:21:12.786Z,9.67
2022-11-16T19:23:45.064Z,9.59
2022-11-16T19:26:13.833Z,9.45
2022-11-16T19:28:43.091Z,9.36
2022-11-16T19:31:12.086Z,9.32
2022-11-16T19:33:39.346Z,9.28
2022-11-16T19:36:10.685Z,9.34
2022-11-16T19:38:38.315Z,9.47
2022-11-16T19:41:06.596Z,9.43
2022-11-16T19:43:34.325Z,9.39
2022-11-16T19:46:06.200Z,9.25
2022-11-16T19:48:33.650Z,9.32
2022-11-16T19:51:08.689Z,9.32
2022-11-16T19:53:36.538Z,9.36
2022-11-16T19:56:04.746Z,9.38
2022-11-16T19:58:32.298Z,9.42
2022-11-16T20:01:07.681Z,9.43
2022-11-16T20:03:35.120Z,9.20
2022-11-16T20:06:07.372Z,9.31
2022-11-16T20:08:34.819Z,9.21
2022-11-16T20:11:01.682Z,9.16
2022-11-16T20:13:28.611Z,9.13
2022-11-16T20:15:55.490Z,9.03
2022-11-16T20:18:22.384Z,9.04
2022-11-16T20:20:49.219Z,9.00
2022-11-16T20:23:16.117Z,8.96
2022-11-16T20:25:42.947Z,8.94
2022-11-16T20:28:09.894Z,8.96
2022-11-16T20:30:37.967Z,8.97
2022-11-16T20:33:05.063Z,8.94
2022-11-16T20:35:33.420Z,8.98
2022-11-16T20:38:00.386Z,9.01
2022-11-16T20:40:27.215Z,9.11
2022-11-16T20:42:59.172Z,9.03
2022-11-16T20:45:27.174Z,8.95
2022-11-16T20:47:53.990Z,8.95
2022-11-16T20:50:20.859Z,9.04
2022-11-16T20:52:52.568Z,8.95
2022-11-16T20:55:19.749Z,8.94
2022-11-16T20:57:46.577Z,8.99
2022-11-16T21:00:14.184Z,9.11
2022-11-16T21:02:40.976Z,9.03
2022-11-16T21:05:08.208Z,8.91
2022-11-16T21:07:35.570Z,8.92
2022-11-16T21:10:20.884Z,8.97
2022-11-16T21:13:06.214Z,8.95
2022-11-16T21:15:33.232Z,9.04
2022-11-16T21:18:00.090Z,9.00
2022-11-16T21:20:28.387Z,8.99
2022-11-16T21:22:55.684Z,8.99
2022-11-16T21:25:22.727Z,9.13
2022-11-16T21:27:49.586Z,9.25
2022-11-16T21:30:16.820Z,9.12
2022-11-16T21:32:43.683Z,9.07
2022-11-16T21:35:10.537Z,9.00
2022-11-16T21:37:37.435Z,8.92
2022-11-16T21:40:04.565Z,9.01
2022-11-16T21:42:31.427Z,9.07
2022-11-16T21:44:58.287Z,9.17
2022-11-16T21:47:25.088Z,8.98
2022-11-16T21:50:16.846Z,8.94
2022-11-16T21:52:38.777Z,8.79
2022-11-16T21:55:05.810Z,8.83
2022-11-16T21:57:32.739Z,8.87
2022-11-16T22:00:01.275Z,8.80
2022-11-16T22:02:38.386Z,8.85
2022-11-16T22:05:24.465Z,8.86
2022-11-16T22:07:52.320Z,8.82
2022-11-16T22:10:19.296Z,8.72
2022-11-16T22:12:46.190Z,8.78
2022-11-16T22:15:14.180Z,8.94
2022-11-16T22:17:45.029Z,8.88
2022-11-16T22:20:12.755Z,8.84
2022-11-16T22:22:40.007Z,8.78
2022-11-16T22:25:07.384Z,8.67
2022-11-16T22:27:52.103Z,8.65
2022-11-16T22:30:21.594Z,8.68
2022-11-16T22:32:48.424Z,8.68
2022-11-16T22:35:15.323Z,8.67
2022-11-16T22:37:42.438Z,8.60
2022-11-16T22:40:14.966Z,8.47
2022-11-16T22:42:44.601Z,8.57
2022-11-16T22:45:12.238Z,8.61
2022-11-16T22:47:39.237Z,8.64
2022-11-16T22:50:06.454Z,8.48
2022-11-16T22:52:33.416Z,8.42
2022-11-16T22:55:00.280Z,8.36
2022-11-16T22:57:27.120Z,8.39
2022-11-16T22:59:54.105Z,8.36
2022-11-16T23:02:20.952Z,8.48
2022-11-16T23:04:47.766Z,8.56
2022-11-16T23:07:14.672Z,8.70
2022-11-16T23:09:41.566Z,8.65
2022-11-16T23:12:27.436Z,8.62
2022-11-16T23:15:12.992Z,8.59
2022-11-16T23:17:39.968Z,8.53
2022-11-16T23:20:25.995Z,8.43
2022-11-16T23:23:11.320Z,8.46
2022-11-16T23:25:56.689Z,8.48
2022-11-16T23:28:23.693Z,8.40
2022-11-16T23:30:50.551Z,8.29
2022-11-16T23:33:17.485Z,8.38
2022-11-16T23:35:44.309Z,8.39
2022-11-16T23:38:11.154Z,8.44
2022-11-16T23:40:39.695Z,8.36
2022-11-16T23:43:28.592Z,8.38
2022-11-16T23:45:55.568Z,8.27
2022-11-16T23:48:22.398Z,8.30
2022-11-16T23:50:49.310Z,8.34
2022-11-16T23:53:16.212Z,8.18
2022-11-16T23:55:43.170Z,8.29
2022-11-16T23:58:14.445Z,8.30
